aviador You're here:

SARP Decoded Metar

POSADAS in ARGENTINA
Report Time2018-07-22 03:00:00
UTC Time2018-07-22 03:07:33
Flight Rules vfr VFR
Wind090° at 05 kt
W.Decomp.*RWY 19: 0.2 kt HW 5 kt LCW
W.Rank090° ranks 2
Current wind is above 090° avg. (4.8)
Visibility9999 m
Phenomena:N/A
Clouds:N/A
Expected CloudBase > 1,600 ft AGL from Temp-Dew spread
CeilingNone
Temp09°C (ISA -5)
Dew Point05°C (76% RH)
AAT6.1°C
QNH1020 hPa
Density Alt-328 ft
Elevation410 ft
Report Wrong Elevation
Raw Report
METAR SARP 220300Z 09005KT CAVOK 09/05 Q1020=

Extra information for SARP:More info

Metar Taf Metar & Taf Last 4 Metars F.Rules Stats Wind Profile Meteogram Temp Stats Airport Information Weather charts Add Link Nearby VenuesMetar ALERT Operation Metar Decoded Social comments